Assateague Island Natl Seashore, Maryland
Current Conditions -  °F | °C
As of 2:53 PM on Thursday 27 Nov 2014 (Local Time) from KOXB Reporting Station
Overcast Overcast  
Wind Chill: 37°   Ceiling: 4400
Heat Index: 44°   Visibility: 10mi
Dew Point: 33°   Wind: 14mph
Humidity: 65%   Direction: 320°NW
Pressure: 30.02"   Gusts: 18mph
Location:  38.12°N, 75.19°W
Report Text: KOXB 271953Z AUTO 32012G16KT 10SM OVC044 07/01 A3002 RMK AO2 SLP164 T00670006 TSNO PNO $
Loading
Personal Weather Stations






























Interactive Weather Map New forecast layout! Learn more

10-Day Weather Forecast

Advertisements
Track Severe Weather on mobile